Eastlake, Colorado
Current Conditions -  °F | °C
As of 6:15 PM on Tuesday 27 Jan 2015 (Local Time) from KEIK Reporting Station
Clear Clear  
Wind Chill: 43°   Ceiling: Unl
Heat Index: 43°   Visibility: 10mi
Dew Point: 27°   Wind: 0mph
Humidity: 54%   Direction: NA
Pressure: 30.02"   Gusts: NA
Location:  39.92°N, 104.96°W
Report Text: KEIK 280115Z AUTO 00000KT 10SM CLR 06/M03 A3002 RMK AO2 T00611026
Loading
Personal Weather Stations






























Interactive Weather Map New forecast layout! Learn more

10-Day Weather Forecast

Advertisements
Track Severe Weather on mobile